sensor_id;sensor_type;location;lat;lon;timestamp;pressure;altitude;pressure_sealevel;temperature;humidity
80542;BME280;69870;51.460;8.842;2024-01-15T00:00:00;96851.31;;;1.29;82.14
80542;BME280;69870;51.460;8.842;2024-01-15T00:02:37;96855.75;;;1.25;81.44
80542;BME280;69870;51.460;8.842;2024-01-15T00:05:04;96854.19;;;1.24;81.33
80542;BME280;69870;51.460;8.842;2024-01-15T00:07:31;96853.19;;;1.28;81.53
80542;BME280;69870;51.460;8.842;2024-01-15T00:09:57;96846.28;;;1.27;81.31
80542;BME280;69870;51.460;8.842;2024-01-15T00:12:24;96848.16;;;1.27;82.20
80542;BME280;69870;51.460;8.842;2024-01-15T00:14:50;96856.66;;;1.29;81.51
80542;BME280;69870;51.460;8.842;2024-01-15T00:17:17;96856.66;;;1.29;81.25
80542;BME280;69870;51.460;8.842;2024-01-15T00:19:45;96853.66;;;1.30;81.83
80542;BME280;69870;51.460;8.842;2024-01-15T00:22:11;96848.28;;;1.30;82.38
80542;BME280;69870;51.460;8.842;2024-01-15T00:24:38;96850.06;;;1.26;82.56
80542;BME280;69870;51.460;8.842;2024-01-15T00:27:04;96848.50;;;1.25;81.45
80542;BME280;69870;51.460;8.842;2024-01-15T00:29:31;96854.00;;;1.29;82.37
80542;BME280;69870;51.460;8.842;2024-01-15T00:31:57;96838.38;;;1.31;81.41
80542;BME280;69870;51.460;8.842;2024-01-15T00:34:24;96846.72;;;1.29;81.34
80542;BME280;69870;51.460;8.842;2024-01-15T00:36:52;96846.06;;;1.32;81.68
80542;BME280;69870;51.460;8.842;2024-01-15T00:39:18;96852.22;;;1.33;81.75
80542;BME280;69870;51.460;8.842;2024-01-15T00:41:45;96836.16;;;1.33;82.05
80542;BME280;69870;51.460;8.842;2024-01-15T00:44:12;96834.13;;;1.30;82.18
80542;BME280;69870;51.460;8.842;2024-01-15T00:46:43;96844.84;;;1.30;81.58
80542;BME280;69870;51.460;8.842;2024-01-15T00:49:10;96834.56;;;1.32;81.41
80542;BME280;69870;51.460;8.842;2024-01-15T00:51:37;96837.59;;;1.30;81.74
80542;BME280;69870;51.460;8.842;2024-01-15T00:54:05;96838.03;;;1.32;81.85
80542;BME280;69870;51.460;8.842;2024-01-15T00:56:31;96837.59;;;1.30;82.08
80542;BME280;69870;51.460;8.842;2024-01-15T00:58:58;96842.94;;;1.30;81.97
80542;BME280;69870;51.460;8.842;2024-01-15T01:01:24;96842.50;;;1.28;80.97
80542;BME280;69870;51.460;8.842;2024-01-15T01:03:51;96832.22;;;1.30;81.62
80542;BME280;69870;51.460;8.842;2024-01-15T01:06:17;96834.91;;;1.30;81.00
80542;BME280;69870;51.460;8.842;2024-01-15T01:08:44;96833.91;;;1.35;81.66
80542;BME280;69870;51.460;8.842;2024-01-15T01:11:13;96831.09;;;1.31;80.59
80542;BME280;69870;51.460;8.842;2024-01-15T01:13:40;96827.66;;;1.31;81.75
80542;BME280;69870;51.460;8.842;2024-01-15T01:16:06;96828.44;;;1.31;81.72
80542;BME280;69870;51.460;8.842;2024-01-15T01:18:33;96825.75;;;1.31;81.94
80542;BME280;69870;51.460;8.842;2024-01-15T01:21:00;96840.72;;;1.32;80.90
80542;BME280;69870;51.460;8.842;2024-01-15T01:23:26;96837.59;;;1.30;81.69
80542;BME280;69870;51.460;8.842;2024-01-15T01:25:53;96830.53;;;1.26;81.18
80542;BME280;69870;51.460;8.842;2024-01-15T01:28:21;96828.31;;;1.28;80.86
80542;BME280;69870;51.460;8.842;2024-01-15T01:30:47;96831.34;;;1.26;81.83
80542;BME280;69870;51.460;8.842;2024-01-15T01:33:14;96842.50;;;1.28;81.57
80542;BME280;69870;51.460;8.842;2024-01-15T01:35:40;96835.91;;;1.26;81.87
80542;BME280;69870;51.460;8.842;2024-01-15T01:38:07;96836.69;;;1.26;80.84
80542;BME280;69870;51.460;8.842;2024-01-15T01:40:34;96843.59;;;1.27;81.97
80542;BME280;69870;51.460;8.842;2024-01-15T01:43:02;96845.97;;;1.29;81.26
80542;BME280;69870;51.460;8.842;2024-01-15T01:45:30;96834.47;;;1.28;81.59
80542;BME280;69870;51.460;8.842;2024-01-15T01:47:57;96853.41;;;1.23;80.93
80542;BME280;69870;51.460;8.842;2024-01-15T01:50:24;96861.09;;;1.25;80.94
80542;BME280;69870;51.460;8.842;2024-01-15T01:52:50;96849.63;;;1.24;81.71
80542;BME280;69870;51.460;8.842;2024-01-15T01:55:18;96847.16;;;1.19;81.25
80542;BME280;69870;51.460;8.842;2024-01-15T01:57:45;96860.97;;;1.21;81.10
80542;BME280;69870;51.460;8.842;2024-01-15T02:00:13;96852.34;;;1.16;81.42
80542;BME280;69870;51.460;8.842;2024-01-15T02:02:41;96846.25;;;1.15;80.67
80542;BME280;69870;51.460;8.842;2024-01-15T02:05:08;96849.38;;;1.17;81.60
80542;BME280;69870;51.460;8.842;2024-01-15T02:07:35;96848.13;;;1.15;81.67
80542;BME280;69870;51.460;8.842;2024-01-15T02:10:02;96847.09;;;1.07;81.42
80542;BME280;69870;51.460;8.842;2024-01-15T02:12:29;96846.63;;;1.05;80.90
80542;BME280;69870;51.460;8.842;2024-01-15T02:14:55;96855.53;;;0.97;81.08
80542;BME280;69870;51.460;8.842;2024-01-15T02:17:22;96859.19;;;0.93;81.72
80542;BME280;69870;51.460;8.842;2024-01-15T02:19:50;96865.09;;;0.98;81.12
80542;BME280;69870;51.460;8.842;2024-01-15T02:22:17;96854.75;;;0.97;80.76
80542;BME280;69870;51.460;8.842;2024-01-15T02:24:45;96858.31;;;1.01;80.54
80542;BME280;69870;51.460;8.842;2024-01-15T02:27:11;96851.09;;;1.01;80.62
80542;BME280;69870;51.460;8.842;2024-01-15T02:29:38;96843.06;;;1.01;81.05
80542;BME280;69870;51.460;8.842;2024-01-15T02:32:06;96842.72;;;1.03;80.60
80542;BME280;69870;51.460;8.842;2024-01-15T02:34:32;96835.03;;;1.01;80.67
80542;BME280;69870;51.460;8.842;2024-01-15T02:36:59;96844.63;;;1.02;80.91
80542;BME280;69870;51.460;8.842;2024-01-15T02:39:26;96837.72;;;1.01;81.38
80542;BME280;69870;51.460;8.842;2024-01-15T02:41:55;96832.34;;;1.01;80.70
80542;BME280;69870;51.460;8.842;2024-01-15T02:44:23;96828.00;;;0.97;80.62
80542;BME280;69870;51.460;8.842;2024-01-15T02:46:49;96838.34;;;0.98;80.33
80542;BME280;69870;51.460;8.842;2024-01-15T02:49:16;96843.78;;;0.90;80.21
80542;BME280;69870;51.460;8.842;2024-01-15T02:51:42;96842.69;;;0.91;81.06
80542;BME280;69870;51.460;8.842;2024-01-15T02:54:09;96835.22;;;0.96;80.47
80542;BME280;69870;51.460;8.842;2024-01-15T02:56:35;96843.13;;;0.93;81.15
80542;BME280;69870;51.460;8.842;2024-01-15T02:59:03;96837.88;;;0.84;80.35
80542;BME280;69870;51.460;8.842;2024-01-15T03:01:30;96851.09;;;0.81;80.60
80542;BME280;69870;51.460;8.842;2024-01-15T03:03:56;96852.41;;;0.74;80.48
80542;BME280;69870;51.460;8.842;2024-01-15T03:06:23;96845.81;;;0.72;80.57
80542;BME280;69870;51.460;8.842;2024-01-15T03:08:49;96854.81;;;0.67;81.36
80542;BME280;69870;51.460;8.842;2024-01-15T03:11:16;96852.59;;;0.69;81.14
80542;BME280;69870;51.460;8.842;2024-01-15T03:13:42;96853.06;;;0.71;80.76
80542;BME280;69870;51.460;8.842;2024-01-15T03:16:10;96854.09;;;0.79;81.37
80542;BME280;69870;51.460;8.842;2024-01-15T03:18:37;96843.66;;;0.86;80.51
80542;BME280;69870;51.460;8.842;2024-01-15T03:21:04;96834.50;;;0.87;80.13
80542;BME280;69870;51.460;8.842;2024-01-15T03:23:31;96840.00;;;0.91;80.64
80542;BME280;69870;51.460;8.842;2024-01-15T03:25:57;96830.75;;;0.88;79.70
80542;BME280;69870;51.460;8.842;2024-01-15T03:28:24;96836.53;;;0.90;80.14
80542;BME280;69870;51.460;8.842;2024-01-15T03:30:51;96836.53;;;0.90;80.84
80542;BME280;69870;51.460;8.842;2024-01-15T03:33:19;96841.38;;;0.97;80.54
80542;BME280;69870;51.460;8.842;2024-01-15T03:35:45;96841.38;;;0.97;79.59
80542;BME280;69870;51.460;8.842;2024-01-15T03:38:12;96835.69;;;0.98;79.56
80542;BME280;69870;51.460;8.842;2024-01-15T03:40:38;96836.81;;;0.97;79.55
80542;BME280;69870;51.460;8.842;2024-01-15T03:43:05;96835.69;;;0.98;80.21
80542;BME280;69870;51.460;8.842;2024-01-15T03:45:31;96824.97;;;0.98;80.47
80542;BME280;69870;51.460;8.842;2024-01-15T03:47:58;96824.97;;;0.98;79.57
80542;BME280;69870;51.460;8.842;2024-01-15T03:50:26;96816.75;;;1.03;80.45
80542;BME280;69870;51.460;8.842;2024-01-15T03:52:52;96827.44;;;1.03;79.35
80542;BME280;69870;51.460;8.842;2024-01-15T03:55:19;96824.31;;;1.01;79.29
80542;BME280;69870;51.460;8.842;2024-01-15T03:57:45;96827.00;;;1.01;80.28
80542;BME280;69870;51.460;8.842;2024-01-15T04:00:13;96822.56;;;1.05;79.57
80542;BME280;69870;51.460;8.842;2024-01-15T04:02:42;96820.31;;;1.07;79.60
80542;BME280;69870;51.460;8.842;2024-01-15T04:05:09;96831.47;;;1.09;80.17
80542;BME280;69870;51.460;8.842;2024-01-15T04:07:37;96818.78;;;1.06;79.51
80542;BME280;69870;51.460;8.842;2024-01-15T04:10:03;96815.13;;;1.11;80.13
80542;BME280;69870;51.460;8.842;2024-01-15T04:12:31;96813.78;;;1.17;79.63
80542;BME280;69870;51.460;8.842;2024-01-15T04:14:57;96802.75;;;1.18;79.72
80542;BME280;69870;51.460;8.842;2024-01-15T04:17:24;96808.88;;;1.19;79.08
80542;BME280;69870;51.460;8.842;2024-01-15T04:19:50;96813.44;;;1.18;78.79
80542;BME280;69870;51.460;8.842;2024-01-15T04:22:17;96799.63;;;1.16;79.60
80542;BME280;69870;51.460;8.842;2024-01-15T04:24:45;96807.97;;;1.15;79.33
80542;BME280;69870;51.460;8.842;2024-01-15T04:27:11;96811.13;;;1.17;78.90
80542;BME280;69870;51.460;8.842;2024-01-15T04:29:38;96821.47;;;1.18;79.45
80542;BME280;69870;51.460;8.842;2024-01-15T04:32:05;96818.81;;;1.18;79.35
80542;BME280;69870;51.460;8.842;2024-01-15T04:34:32;96814.69;;;1.21;79.20
80542;BME280;69870;51.460;8.842;2024-01-15T04:36:58;96808.09;;;1.18;79.79
80542;BME280;69870;51.460;8.842;2024-01-15T04:39:25;96804.31;;;1.19;80.02
80542;BME280;69870;51.460;8.842;2024-01-15T04:41:53;96810.47;;;1.20;79.00
80542;BME280;69870;51.460;8.842;2024-01-15T04:44:20;96793.84;;;1.26;78.54
80542;BME280;69870;51.460;8.842;2024-01-15T04:46:46;96793.41;;;1.24;78.54
80542;BME280;69870;51.460;8.842;2024-01-15T04:49:13;96791.50;;;1.25;79.12
80542;BME280;69870;51.460;8.842;2024-01-15T04:51:39;96795.06;;;1.17;78.44
80542;BME280;69870;51.460;8.842;2024-01-15T04:54:06;96784.00;;;1.18;78.67
80542;BME280;69870;51.460;8.842;2024-01-15T04:56:33;96779.44;;;1.19;78.56
80542;BME280;69870;51.460;8.842;2024-01-15T04:59:00;96777.22;;;1.21;78.70
80542;BME280;69870;51.460;8.842;2024-01-15T05:01:30;96775.19;;;1.18;79.69
80542;BME280;69870;51.460;8.842;2024-01-15T05:03:57;96764.63;;;1.21;79.59
80542;BME280;69870;51.460;8.842;2024-01-15T05:06:24;96762.38;;;1.23;78.92
80542;BME280;69870;51.460;8.842;2024-01-15T05:08:50;96766.50;;;1.21;79.03
80542;BME280;69870;51.460;8.842;2024-01-15T05:11:17;96765.41;;;1.22;78.59
80542;BME280;69870;51.460;8.842;2024-01-15T05:13:43;96762.72;;;1.22;79.25
80542;BME280;69870;51.460;8.842;2024-01-15T05:16:11;96756.38;;;1.26;78.59
80542;BME280;69870;51.460;8.842;2024-01-15T05:18:38;96751.78;;;1.27;78.69
80542;BME280;69870;51.460;8.842;2024-01-15T05:21:05;96756.03;;;1.28;79.00
80542;BME280;69870;51.460;8.842;2024-01-15T05:23:31;96749.25;;;1.30;78.31
80542;BME280;69870;51.460;8.842;2024-01-15T05:25:58;96762.63;;;1.30;78.27
80542;BME280;69870;51.460;8.842;2024-01-15T05:28:25;96754.47;;;1.27;78.36
80542;BME280;69870;51.460;8.842;2024-01-15T05:30:51;96750.69;;;1.28;78.35
80542;BME280;69870;51.460;8.842;2024-01-15T05:33:21;96761.28;;;1.24;78.77
80542;BME280;69870;51.460;8.842;2024-01-15T05:35:47;96761.72;;;1.26;78.55
80542;BME280;69870;51.460;8.842;2024-01-15T05:38:15;96767.09;;;1.26;79.18
80542;BME280;69870;51.460;8.842;2024-01-15T05:40:42;96770.22;;;1.28;78.51
80542;BME280;69870;51.460;8.842;2024-01-15T05:43:08;96768.84;;;1.22;79.10
80542;BME280;69870;51.460;8.842;2024-01-15T05:45:35;96769.75;;;1.26;78.38
80542;BME280;69870;51.460;8.842;2024-01-15T05:48:01;96767.41;;;1.25;79.02
80542;BME280;69870;51.460;8.842;2024-01-15T05:50:30;96763.28;;;1.27;79.10
80542;BME280;69870;51.460;8.842;2024-01-15T05:52:57;96764.06;;;1.28;79.03
80542;BME280;69870;51.460;8.842;2024-01-15T05:55:23;96758.72;;;1.28;78.80
80542;BME280;69870;51.460;8.842;2024-01-15T05:57:50;96759.94;;;1.30;78.63
80542;BME280;69870;51.460;8.842;2024-01-15T06:00:17;96759.16;;;1.30;79.08
80542;BME280;69870;51.460;8.842;2024-01-15T06:02:43;96750.34;;;1.29;78.65
80542;BME280;69870;51.460;8.842;2024-01-15T06:05:10;96741.06;;;1.27;78.85
80542;BME280;69870;51.460;8.842;2024-01-15T06:07:38;96733.38;;;1.25;78.58
80542;BME280;69870;51.460;8.842;2024-01-15T06:10:06;96734.03;;;1.22;79.04
80542;BME280;69870;51.460;8.842;2024-01-15T06:12:32;96737.41;;;1.19;78.58
80542;BME280;69870;51.460;8.842;2024-01-15T06:14:59;96743.19;;;1.21;79.56
80542;BME280;69870;51.460;8.842;2024-01-15T06:17:25;96744.75;;;1.22;79.43
80542;BME280;69870;51.460;8.842;2024-01-15T06:19:52;96741.41;;;1.25;78.80
80542;BME280;69870;51.460;8.842;2024-01-15T06:22:18;96737.97;;;1.25;79.58
80542;BME280;69870;51.460;8.842;2024-01-15T06:24:46;96738.41;;;1.27;78.52
80542;BME280;69870;51.460;8.842;2024-01-15T06:27:13;96734.63;;;1.28;78.99
80542;BME280;69870;51.460;8.842;2024-01-15T06:29:45;96736.66;;;1.31;78.54
80542;BME280;69870;51.460;8.842;2024-01-15T06:32:12;96737.53;;;1.35;78.63
80542;BME280;69870;51.460;8.842;2024-01-15T06:34:38;96736.75;;;1.34;78.32
80542;BME280;69870;51.460;8.842;2024-01-15T06:37:05;96736.75;;;1.34;78.23
80542;BME280;69870;51.460;8.842;2024-01-15T06:39:32;96747.47;;;1.34;78.25
80542;BME280;69870;51.460;8.842;2024-01-15T06:42:00;96738.19;;;1.32;78.98
80542;BME280;69870;51.460;8.842;2024-01-15T06:44:27;96751.13;;;1.30;79.42
80542;BME280;69870;51.460;8.842;2024-01-15T06:46:53;96758.06;;;1.31;78.71
80542;BME280;69870;51.460;8.842;2024-01-15T06:49:22;96759.75;;;1.35;78.21
80542;BME280;69870;51.460;8.842;2024-01-15T06:51:49;96762.41;;;1.35;78.90
80542;BME280;69870;51.460;8.842;2024-01-15T06:54:15;96751.56;;;1.32;78.26
80542;BME280;69870;51.460;8.842;2024-01-15T06:56:42;96752.38;;;1.32;78.75
80542;BME280;69870;51.460;8.842;2024-01-15T06:59:10;96764.63;;;1.33;78.47
80542;BME280;69870;51.460;8.842;2024-01-15T07:01:36;96763.53;;;1.34;78.07
80542;BME280;69870;51.460;8.842;2024-01-15T07:04:03;96771.66;;;1.38;79.32
80542;BME280;69870;51.460;8.842;2024-01-15T07:06:30;96760.50;;;1.36;78.70
80542;BME280;69870;51.460;8.842;2024-01-15T07:08:56;96768.22;;;1.37;78.98
80542;BME280;69870;51.460;8.842;2024-01-15T07:11:23;96769.97;;;1.33;78.07
80542;BME280;69870;51.460;8.842;2024-01-15T07:13:50;96759.25;;;1.33;78.31
80542;BME280;69870;51.460;8.842;2024-01-15T07:16:17;96761.28;;;1.36;78.19
80542;BME280;69870;51.460;8.842;2024-01-15T07:18:44;96759.50;;;1.40;79.06
80542;BME280;69870;51.460;8.842;2024-01-15T07:21:11;96762.53;;;1.39;79.24
80542;BME280;69870;51.460;8.842;2024-01-15T07:23:37;96765.19;;;1.39;79.16
80542;BME280;69870;51.460;8.842;2024-01-15T07:26:04;96766.78;;;1.40;79.40
80542;BME280;69870;51.460;8.842;2024-01-15T07:28:31;96769.47;;;1.40;79.17
80542;BME280;69870;51.460;8.842;2024-01-15T07:30:58;96766.78;;;1.40;78.93
80542;BME280;69870;51.460;8.842;2024-01-15T07:33:25;96769.91;;;1.42;78.23
80542;BME280;69870;51.460;8.842;2024-01-15T07:35:51;96767.44;;;1.37;78.24
80542;BME280;69870;51.460;8.842;2024-01-15T07:38:18;96763.97;;;1.36;79.00
80542;BME280;69870;51.460;8.842;2024-01-15T07:40:44;96767.22;;;1.42;78.41
80542;BME280;69870;51.460;8.842;2024-01-15T07:43:14;96770.00;;;1.45;78.64
80542;BME280;69870;51.460;8.842;2024-01-15T07:45:41;96769.78;;;1.51;79.26
80542;BME280;69870;51.460;8.842;2024-01-15T07:48:07;96770.44;;;1.47;78.70
80542;BME280;69870;51.460;8.842;2024-01-15T07:50:36;96772.03;;;1.48;79.21
80542;BME280;69870;51.460;8.842;2024-01-15T07:53:02;96777.03;;;1.50;79.24
80542;BME280;69870;51.460;8.842;2024-01-15T07:55:29;96771.78;;;1.41;79.29
80542;BME280;69870;51.460;8.842;2024-01-15T07:57:56;96766.44;;;1.41;79.39
80542;BME280;69870;51.460;8.842;2024-01-15T08:00:24;96782.59;;;1.45;78.58
80542;BME280;69870;51.460;8.842;2024-01-15T08:02:51;96774.72;;;1.48;78.39
80542;BME280;69870;51.460;8.842;2024-01-15T08:05:18;96780.06;;;1.48;78.85
80542;BME280;69870;51.460;8.842;2024-01-15T08:07:47;96782.41;;;1.50;78.81
80542;BME280;69870;51.460;8.842;2024-01-15T08:10:14;96780.16;;;1.52;79.68
80542;BME280;69870;51.460;8.842;2024-01-15T08:12:40;96774.16;;;1.55;79.29
80542;BME280;69870;51.460;8.842;2024-01-15T08:15:07;96766.22;;;1.59;78.85
80542;BME280;69870;51.460;8.842;2024-01-15T08:17:34;96775.16;;;1.63;79.66
80542;BME280;69870;51.460;8.842;2024-01-15T08:20:00;96766.66;;;1.61;79.20
80542;BME280;69870;51.460;8.842;2024-01-15T08:22:27;96770.22;;;1.65;78.92
80542;BME280;69870;51.460;8.842;2024-01-15T08:24:55;96767.56;;;1.65;79.07
80542;BME280;69870;51.460;8.842;2024-01-15T08:27:22;96761.75;;;1.63;79.41
80542;BME280;69870;51.460;8.842;2024-01-15T08:29:49;96757.09;;;1.60;78.78
80542;BME280;69870;51.460;8.842;2024-01-15T08:32:15;96755.94;;;1.61;79.85
80542;BME280;69870;51.460;8.842;2024-01-15T08:34:42;96757.53;;;1.62;79.47
80542;BME280;69870;51.460;8.842;2024-01-15T08:37:08;96754.50;;;1.63;79.68
80542;BME280;69870;51.460;8.842;2024-01-15T08:39:35;96756.84;;;1.65;78.68
80542;BME280;69870;51.460;8.842;2024-01-15T08:42:05;96757.19;;;1.63;79.50
80542;BME280;69870;51.460;8.842;2024-01-15T08:44:31;96743.78;;;1.63;79.00
80542;BME280;69870;51.460;8.842;2024-01-15T08:46:58;96752.72;;;1.55;80.10
80542;BME280;69870;51.460;8.842;2024-01-15T08:49:24;96755.06;;;1.57;80.03
80542;BME280;69870;51.460;8.842;2024-01-15T08:51:51;96755.72;;;1.54;80.13
80542;BME280;69870;51.460;8.842;2024-01-15T08:54:18;96760.19;;;1.49;79.15
80542;BME280;69870;51.460;8.842;2024-01-15T08:56:44;96762.88;;;1.49;80.01
80542;BME280;69870;51.460;8.842;2024-01-15T08:59:12;96747.47;;;1.46;80.48
80542;BME280;69870;51.460;8.842;2024-01-15T09:01:39;96756.63;;;1.45;80.41
80542;BME280;69870;51.460;8.842;2024-01-15T09:04:05;96751.72;;;1.47;80.43
80542;BME280;69870;51.460;8.842;2024-01-15T09:06:32;96762.22;;;1.53;79.99
80542;BME280;69870;51.460;8.842;2024-01-15T09:08:58;96763.44;;;1.55;80.38
80542;BME280;69870;51.460;8.842;2024-01-15T09:11:25;96768.00;;;1.55;80.12
80542;BME280;69870;51.460;8.842;2024-01-15T09:13:52;96778.28;;;1.53;80.61
80542;BME280;69870;51.460;8.842;2024-01-15T09:16:19;96772.47;;;1.51;80.40
80542;BME280;69870;51.460;8.842;2024-01-15T09:18:46;96774.81;;;1.52;80.69
80542;BME280;69870;51.460;8.842;2024-01-15T09:21:13;96775.84;;;1.60;80.52
80542;BME280;69870;51.460;8.842;2024-01-15T09:23:39;96772.03;;;1.61;79.67
80542;BME280;69870;51.460;8.842;2024-01-15T09:26:08;96767.78;;;1.60;80.43
80542;BME280;69870;51.460;8.842;2024-01-15T09:28:34;96771.56;;;1.59;80.47
80542;BME280;69870;51.460;8.842;2024-01-15T09:31:01;96778.06;;;1.58;80.01
80542;BME280;69870;51.460;8.842;2024-01-15T09:33:29;96770.03;;;1.58;79.77
80542;BME280;69870;51.460;8.842;2024-01-15T09:35:55;96765.78;;;1.57;79.97
80542;BME280;69870;51.460;8.842;2024-01-15T09:38:22;96775.03;;;1.59;80.50
80542;BME280;69870;51.460;8.842;2024-01-15T09:40:49;96765.34;;;1.55;80.75
80542;BME280;69870;51.460;8.842;2024-01-15T09:43:16;96767.00;;;1.59;80.21
80542;BME280;69870;51.460;8.842;2024-01-15T09:45:44;96762.09;;;1.61;80.70
80542;BME280;69870;51.460;8.842;2024-01-15T09:48:11;96768.47;;;1.69;79.98
80542;BME280;69870;51.460;8.842;2024-01-15T09:50:39;96765.25;;;1.75;79.89
80542;BME280;69870;51.460;8.842;2024-01-15T09:53:06;96769.69;;;1.83;80.78
80542;BME280;69870;51.460;8.842;2024-01-15T09:55:32;96763.41;;;1.91;79.67
80542;BME280;69870;51.460;8.842;2024-01-15T09:58:00;96769.25;;;1.93;80.08
80542;BME280;69870;51.460;8.842;2024-01-15T10:00:28;96768.03;;;1.91;80.13
80542;BME280;69870;51.460;8.842;2024-01-15T10:02:56;96765.00;;;1.80;80.44
80542;BME280;69870;51.460;8.842;2024-01-15T10:05:23;96778.94;;;1.74;80.05
80542;BME280;69870;51.460;8.842;2024-01-15T10:07:51;96773.50;;;1.70;80.61
80542;BME280;69870;51.460;8.842;2024-01-15T10:10:19;96769.22;;;1.69;81.09
80542;BME280;69870;51.460;8.842;2024-01-15T10:12:47;96771.16;;;1.69;80.78
80542;BME280;69870;51.460;8.842;2024-01-15T10:15:14;96768.03;;;1.67;80.70
80542;BME280;69870;51.460;8.842;2024-01-15T10:17:41;96766.91;;;1.68;80.31
80542;BME280;69870;51.460;8.842;2024-01-15T10:20:09;96753.59;;;1.71;80.56
80542;BME280;69870;51.460;8.842;2024-01-15T10:22:39;96751.16;;;1.78;81.47
80542;BME280;69870;51.460;8.842;2024-01-15T10:25:10;96755.94;;;1.85;81.14
80542;BME280;69870;51.460;8.842;2024-01-15T10:27:36;96756.38;;;1.87;80.20
80542;BME280;69870;51.460;8.842;2024-01-15T10:30:04;96759.19;;;1.90;80.18
80542;BME280;69870;51.460;8.842;2024-01-15T10:32:31;96755.06;;;1.93;80.50
80542;BME280;69870;51.460;8.842;2024-01-15T10:34:58;96745.56;;;1.95;80.70
80542;BME280;69870;51.460;8.842;2024-01-15T10:37:25;96749.34;;;1.94;81.15
80542;BME280;69870;51.460;8.842;2024-01-15T10:39:52;96753.94;;;1.94;80.89
80542;BME280;69870;51.460;8.842;2024-01-15T10:42:20;96764.00;;;1.97;80.53
80542;BME280;69870;51.460;8.842;2024-01-15T10:44:47;96758.53;;;1.93;80.03
80542;BME280;69870;51.460;8.842;2024-01-15T10:47:14;96757.75;;;1.93;80.50
80542;BME280;69870;51.460;8.842;2024-01-15T10:49:41;96752.03;;;1.94;80.40
80542;BME280;69870;51.460;8.842;2024-01-15T10:52:07;96742.78;;;1.92;80.52
80542;BME280;69870;51.460;8.842;2024-01-15T10:54:37;96752.47;;;1.96;81.05
80542;BME280;69870;51.460;8.842;2024-01-15T10:57:04;96742.56;;;1.97;80.86
80542;BME280;69870;51.460;8.842;2024-01-15T10:59:32;96743.13;;;1.90;80.43
80542;BME280;69870;51.460;8.842;2024-01-15T11:01:59;96747.69;;;1.90;80.41
80542;BME280;69870;51.460;8.842;2024-01-15T11:04:26;96743.22;;;1.94;81.08
80542;BME280;69870;51.460;8.842;2024-01-15T11:06:54;96742.91;;;1.95;80.16
80542;BME280;69870;51.460;8.842;2024-01-15T11:09:22;96734.94;;;1.99;79.97
80542;BME280;69870;51.460;8.842;2024-01-15T11:11:52;96744.56;;;2.00;79.96
80542;BME280;69870;51.460;8.842;2024-01-15T11:14:42;96740.31;;;1.99;80.32
80542;BME280;69870;51.460;8.842;2024-01-15T11:17:12;96738.72;;;1.98;80.77
80542;BME280;69870;51.460;8.842;2024-01-15T11:19:42;96732.63;;;1.97;80.08
80542;BME280;69870;51.460;8.842;2024-01-15T11:22:10;96736.75;;;1.95;80.05
80542;BME280;69870;51.460;8.842;2024-01-15T11:24:38;96743.22;;;1.94;80.29
80542;BME280;69870;51.460;8.842;2024-01-15T11:27:05;96745.91;;;1.94;80.02
80542;BME280;69870;51.460;8.842;2024-01-15T11:29:33;96751.50;;;1.89;81.11
80542;BME280;69870;51.460;8.842;2024-01-15T11:32:03;96740.66;;;1.85;80.08
80542;BME280;69870;51.460;8.842;2024-01-15T11:34:56;96741.44;;;1.86;80.89
80542;BME280;69870;51.460;8.842;2024-01-15T11:37:29;96742.53;;;1.85;80.64
80542;BME280;69870;51.460;8.842;2024-01-15T11:39:56;96743.91;;;1.91;80.03
80542;BME280;69870;51.460;8.842;2024-01-15T11:42:27;96742.56;;;1.97;79.99
80542;BME280;69870;51.460;8.842;2024-01-15T11:44:53;96746.47;;;1.99;79.87
80542;BME280;69870;51.460;8.842;2024-01-15T11:47:44;96737.63;;;1.99;79.87
80542;BME280;69870;51.460;8.842;2024-01-15T11:50:15;96735.16;;;2.06;80.42
80542;BME280;69870;51.460;8.842;2024-01-15T11:52:49;96746.78;;;2.10;80.34
80542;BME280;69870;51.460;8.842;2024-01-15T11:55:21;96740.63;;;2.09;80.12
80542;BME280;69870;51.460;8.842;2024-01-15T11:57:50;96736.03;;;2.10;79.90
80542;BME280;69870;51.460;8.842;2024-01-15T12:00:17;96729.91;;;2.09;79.38
80542;BME280;69870;51.460;8.842;2024-01-15T12:02:46;96728.56;;;2.03;80.16
80542;BME280;69870;51.460;8.842;2024-01-15T12:05:14;96736.41;;;2.08;80.15
80542;BME280;69870;51.460;8.842;2024-01-15T12:07:41;96725.31;;;2.10;79.31
80542;BME280;69870;51.460;8.842;2024-01-15T12:10:09;96741.50;;;2.13;79.51
80542;BME280;69870;51.460;8.842;2024-01-15T12:12:53;96741.19;;;2.03;79.02
80542;BME280;69870;51.460;8.842;2024-01-15T12:15:21;96743.66;;;1.96;79.28
80542;BME280;69870;51.460;8.842;2024-01-15T12:17:49;96740.97;;;1.96;79.24
80542;BME280;69870;51.460;8.842;2024-01-15T12:20:15;96733.06;;;1.87;78.88
80542;BME280;69870;51.460;8.842;2024-01-15T12:22:43;96739.22;;;1.88;80.09
80542;BME280;69870;51.460;8.842;2024-01-15T12:25:10;96728.41;;;1.84;79.77
80542;BME280;69870;51.460;8.842;2024-01-15T12:27:37;96739.31;;;1.91;79.38
80542;BME280;69870;51.460;8.842;2024-01-15T12:30:05;96750.38;;;2.02;79.49
80542;BME280;69870;51.460;8.842;2024-01-15T12:32:32;96746.88;;;2.13;79.13
80542;BME280;69870;51.460;8.842;2024-01-15T12:35:03;96743.88;;;2.15;78.51
80542;BME280;69870;51.460;8.842;2024-01-15T12:37:31;96743.75;;;2.11;78.13
80542;BME280;69870;51.460;8.842;2024-01-15T12:40:06;96743.56;;;2.04;78.47
80542;BME280;69870;51.460;8.842;2024-01-15T12:42:37;96747.69;;;2.02;77.93
80542;BME280;69870;51.460;8.842;2024-01-15T12:45:10;96756.97;;;1.92;78.72
80542;BME280;69870;51.460;8.842;2024-01-15T12:47:41;96755.38;;;1.91;78.41
80542;BME280;69870;51.460;8.842;2024-01-15T12:50:13;96754.63;;;1.91;79.04
80542;BME280;69870;51.460;8.842;2024-01-15T12:52:44;96754.06;;;1.85;79.31
80542;BME280;69870;51.460;8.842;2024-01-15T12:55:38;96760.41;;;1.81;79.09
80542;BME280;69870;51.460;8.842;2024-01-15T12:58:07;96754.28;;;1.80;79.55
80542;BME280;69870;51.460;8.842;2024-01-15T13:00:43;96750.50;;;1.81;78.86
80542;BME280;69870;51.460;8.842;2024-01-15T13:03:15;96755.28;;;1.88;78.47
80542;BME280;69870;51.460;8.842;2024-01-15T13:05:45;96760.66;;;1.88;79.22
80542;BME280;69870;51.460;8.842;2024-01-15T13:08:37;96757.97;;;1.88;78.86
80542;BME280;69870;51.460;8.842;2024-01-15T13:11:07;96785.41;;;1.85;78.56